createdAt,value
2018-12-27T00:01:22.855Z,30.62
2018-12-27T00:05:27.384Z,28.90
2018-12-27T00:09:31.944Z,27.37
2018-12-27T00:13:36.490Z,28.27
2018-12-27T00:17:41.071Z,26.07
2018-12-27T00:21:45.598Z,25.05
2018-12-27T00:25:50.124Z,24.35
2018-12-27T00:29:54.622Z,24.37
2018-12-27T00:33:59.320Z,23.22
2018-12-27T00:38:03.999Z,23.97
2018-12-27T00:42:08.677Z,23.18
2018-12-27T00:46:13.363Z,22.20
2018-12-27T00:50:18.004Z,21.27
2018-12-27T00:54:22.744Z,19.82
2018-12-27T00:58:27.436Z,20.35
2018-12-27T01:02:32.139Z,19.55
2018-12-27T01:06:36.816Z,18.93
2018-12-27T01:10:41.458Z,18.65
2018-12-27T01:14:46.134Z,18.30
2018-12-27T01:18:50.872Z,17.98
2018-12-27T01:22:55.560Z,17.02
2018-12-27T01:27:00.245Z,17.12
2018-12-27T01:31:04.895Z,16.97
2018-12-27T01:35:09.581Z,16.10
2018-12-27T01:39:14.266Z,16.73
2018-12-27T01:43:18.968Z,15.95
2018-12-27T01:47:23.642Z,15.90
2018-12-27T01:51:28.307Z,16.05
2018-12-27T01:55:33.984Z,15.10
2018-12-27T01:59:38.698Z,14.87
2018-12-27T02:03:43.380Z,14.73
2018-12-27T02:07:48.071Z,15.43
2018-12-27T02:11:52.715Z,15.30
2018-12-27T02:15:57.402Z,15.13
2018-12-27T02:20:02.103Z,15.45
2018-12-27T02:24:06.784Z,15.50
2018-12-27T02:28:11.486Z,16.32
2018-12-27T02:32:16.145Z,15.38
2018-12-27T02:36:20.827Z,15.65
2018-12-27T02:40:25.511Z,15.95
2018-12-27T02:44:30.180Z,15.70
2018-12-27T02:48:34.987Z,15.00
2018-12-27T02:52:39.630Z,15.50
2018-12-27T02:56:44.324Z,14.35
2018-12-27T03:00:49.044Z,14.90
2018-12-27T03:04:53.756Z,15.15
2018-12-27T03:08:58.476Z,14.98
2018-12-27T03:13:03.155Z,14.83
2018-12-27T03:17:07.847Z,14.45
2018-12-27T03:21:12.588Z,14.30
2018-12-27T03:25:17.270Z,14.55
2018-12-27T03:29:21.971Z,13.83
2018-12-27T03:33:26.653Z,13.77
2018-12-27T03:37:31.405Z,14.20
2018-12-27T03:41:36.102Z,12.90
2018-12-27T03:45:40.812Z,12.60
2018-12-27T03:49:45.544Z,13.40
2018-12-27T03:53:50.219Z,12.90
2018-12-27T03:57:54.928Z,13.28
2018-12-27T04:01:59.629Z,12.23
2018-12-27T04:06:04.318Z,13.35
2018-12-27T04:10:08.999Z,12.73
2018-12-27T04:14:13.762Z,13.60
2018-12-27T04:18:18.239Z,13.53
2018-12-27T04:22:22.792Z,12.60
2018-12-27T04:26:28.347Z,12.43
2018-12-27T04:30:33.077Z,12.30
2018-12-27T04:34:38.039Z,12.58
2018-12-27T04:38:42.546Z,12.55
2018-12-27T04:42:47.220Z,12.68
2018-12-27T04:46:51.766Z,12.47
2018-12-27T04:50:56.307Z,12.75
2018-12-27T04:55:00.990Z,12.45
2018-12-27T04:59:05.523Z,13.00
2018-12-27T05:03:10.094Z,12.28
2018-12-27T05:07:14.626Z,12.60
2018-12-27T05:11:19.155Z,11.75
2018-12-27T05:15:23.746Z,12.73
2018-12-27T05:19:28.290Z,12.15
2018-12-27T05:23:32.846Z,11.35
2018-12-27T05:27:37.395Z,11.73
2018-12-27T05:31:41.969Z,11.88
2018-12-27T05:35:46.504Z,11.55
2018-12-27T05:39:51.005Z,11.97
2018-12-27T05:43:55.555Z,11.48
2018-12-27T05:48:00.102Z,11.30
2018-12-27T05:52:04.634Z,11.43
2018-12-27T05:56:09.172Z,11.83
2018-12-27T06:00:13.687Z,12.45
2018-12-27T06:04:18.247Z,11.75
2018-12-27T06:08:22.807Z,11.43
2018-12-27T06:12:27.363Z,12.10
2018-12-27T06:16:31.904Z,11.55
2018-12-27T06:20:36.441Z,11.57
2018-12-27T06:24:41.002Z,11.28
2018-12-27T06:28:45.535Z,11.50
2018-12-27T06:32:50.081Z,11.50
2018-12-27T06:36:54.646Z,12.28
2018-12-27T06:40:59.143Z,11.68
2018-12-27T06:45:03.776Z,12.47
2018-12-27T06:49:08.312Z,11.40
2018-12-27T06:53:12.865Z,12.53
2018-12-27T06:57:17.404Z,12.25
2018-12-27T07:01:21.899Z,12.20
2018-12-27T07:05:26.435Z,11.78
2018-12-27T07:09:30.981Z,11.73
2018-12-27T07:13:35.554Z,12.15
2018-12-27T07:17:40.107Z,11.63
2018-12-27T07:21:44.691Z,12.68
2018-12-27T07:25:49.231Z,12.20
2018-12-27T07:29:53.801Z,12.55
2018-12-27T07:33:58.338Z,11.45
2018-12-27T07:38:02.832Z,11.63
2018-12-27T07:42:07.387Z,11.57
2018-12-27T07:46:11.942Z,12.05
2018-12-27T07:50:16.491Z,12.37
2018-12-27T07:54:20.982Z,11.97
2018-12-27T07:58:25.528Z,12.00
2018-12-27T08:02:30.068Z,12.50
2018-12-27T08:06:34.605Z,11.87
2018-12-27T08:10:39.136Z,12.18
2018-12-27T08:14:43.672Z,11.33
2018-12-27T08:18:48.255Z,11.50
2018-12-27T08:22:52.807Z,11.15
2018-12-27T08:26:57.331Z,11.90
2018-12-27T08:31:01.872Z,10.75
2018-12-27T08:35:11.361Z,11.97
2018-12-27T08:39:12.832Z,12.07
2018-12-27T08:43:17.384Z,11.83
2018-12-27T08:47:21.911Z,11.63
2018-12-27T08:51:26.474Z,12.43
2018-12-27T08:55:31.020Z,11.60
2018-12-27T08:59:35.554Z,11.77
2018-12-27T09:03:40.171Z,11.57
2018-12-27T09:07:44.719Z,11.60
2018-12-27T09:11:49.288Z,11.95
2018-12-27T09:15:53.827Z,11.53
2018-12-27T09:19:58.464Z,11.45
2018-12-27T09:24:02.964Z,11.03
2018-12-27T09:28:07.527Z,10.97
2018-12-27T09:32:12.133Z,10.75
2018-12-27T09:36:16.663Z,10.82
2018-12-27T09:40:21.183Z,10.85
2018-12-27T09:44:28.773Z,11.05
2018-12-27T09:48:33.344Z,11.08
2018-12-27T09:52:37.895Z,11.10
2018-12-27T09:56:45.419Z,11.30
2018-12-27T10:00:49.966Z,10.28
2018-12-27T10:04:54.463Z,10.63
2018-12-27T10:08:59.000Z,10.57
2018-12-27T10:13:03.547Z,11.30
2018-12-27T10:17:08.095Z,10.85
2018-12-27T10:21:12.667Z,11.10
2018-12-27T10:25:20.118Z,10.60
2018-12-27T10:29:28.078Z,10.75
2018-12-27T10:33:32.640Z,10.98
2018-12-27T10:37:37.190Z,11.50
2018-12-27T10:41:41.824Z,10.78
2018-12-27T10:45:46.347Z,10.68
2018-12-27T10:49:50.899Z,10.40
2018-12-27T10:53:55.648Z,11.28
2018-12-27T10:58:00.121Z,11.90
2018-12-27T11:02:04.659Z,11.57
2018-12-27T11:06:09.156Z,11.03
2018-12-27T11:10:13.719Z,11.57
2018-12-27T11:14:18.247Z,11.85
2018-12-27T11:18:22.819Z,11.60
2018-12-27T11:22:27.398Z,11.85
2018-12-27T11:26:31.897Z,12.05
2018-12-27T11:30:36.435Z,13.67
2018-12-27T11:34:40.969Z,14.10
2018-12-27T11:38:45.513Z,12.35
2018-12-27T11:42:50.056Z,12.20
2018-12-27T11:46:54.560Z,11.68
2018-12-27T11:50:59.104Z,12.18
2018-12-27T11:55:03.635Z,11.00
2018-12-27T11:59:08.279Z,10.58
2018-12-27T12:03:12.815Z,11.40
2018-12-27T12:07:17.316Z,11.40
2018-12-27T12:11:21.848Z,11.68
2018-12-27T12:15:26.386Z,11.05
2018-12-27T12:19:30.982Z,11.22
2018-12-27T12:23:35.615Z,11.10
2018-12-27T12:27:40.103Z,11.43
2018-12-27T12:31:44.663Z,12.80
2018-12-27T12:35:49.198Z,11.83
2018-12-27T12:39:53.765Z,10.60
2018-12-27T12:43:58.300Z,10.63
2018-12-27T12:48:02.791Z,10.73
2018-12-27T12:52:07.358Z,11.40
2018-12-27T12:56:11.903Z,10.93
2018-12-27T13:00:16.435Z,11.57
2018-12-27T13:04:21.032Z,11.95
2018-12-27T13:08:25.332Z,10.30
2018-12-27T13:12:29.872Z,11.45
2018-12-27T13:16:34.415Z,10.10
2018-12-27T13:20:38.991Z,10.58
2018-12-27T13:24:43.494Z,10.68
2018-12-27T13:28:48.039Z,10.78
2018-12-27T13:32:52.568Z,10.20
2018-12-27T13:36:57.110Z,10.10
2018-12-27T13:41:01.622Z,10.25
2018-12-27T13:45:06.642Z,10.40
2018-12-27T13:49:11.175Z,10.03
2018-12-27T13:53:15.835Z,10.60
2018-12-27T13:57:20.463Z,13.08
2018-12-27T14:01:24.976Z,10.93
2018-12-27T14:05:29.509Z,10.77
2018-12-27T14:09:34.039Z,10.75
2018-12-27T14:13:38.583Z,10.32
2018-12-27T14:17:43.109Z,10.37
2018-12-27T14:21:47.671Z,10.55
2018-12-27T14:25:52.209Z,9.78
2018-12-27T14:29:56.735Z,9.87
2018-12-27T14:34:01.239Z,9.60
2018-12-27T14:38:05.780Z,9.53
2018-12-27T14:42:10.313Z,9.57
2018-12-27T14:46:14.870Z,9.98
2018-12-27T14:50:19.413Z,9.98
2018-12-27T14:54:23.903Z,9.13
2018-12-27T14:58:37.538Z,9.88
2018-12-27T15:02:42.228Z,9.30
2018-12-27T15:06:47.884Z,9.85
2018-12-27T15:10:52.974Z,11.75
2018-12-27T15:14:57.494Z,9.65
2018-12-27T15:19:02.075Z,9.78
2018-12-27T15:23:06.641Z,10.40
2018-12-27T15:27:11.179Z,9.13
2018-12-27T15:31:15.733Z,9.25
2018-12-27T15:35:20.252Z,9.48
2018-12-27T15:39:24.886Z,9.50
2018-12-27T15:43:29.575Z,9.10
2018-12-27T15:47:34.125Z,9.25
2018-12-27T15:51:38.679Z,9.25
2018-12-27T15:55:43.180Z,9.33
2018-12-27T15:59:47.823Z,7.87
2018-12-27T16:03:52.351Z,8.05
2018-12-27T16:07:56.894Z,7.90
2018-12-27T16:12:01.455Z,8.13
2018-12-27T16:16:06.835Z,8.13
2018-12-27T16:20:11.691Z,7.72
2018-12-27T16:24:16.319Z,8.35
2018-12-27T16:28:20.859Z,9.78
2018-12-27T16:32:25.400Z,9.90
2018-12-27T16:36:29.912Z,11.97
2018-12-27T16:40:34.440Z,10.88
2018-12-27T16:44:38.974Z,9.23
2018-12-27T16:48:43.531Z,12.10
2018-12-27T16:52:48.063Z,8.53
2018-12-27T16:56:52.568Z,8.60
2018-12-27T17:00:57.185Z,17.95
2018-12-27T17:05:01.856Z,8.70
2018-12-27T17:09:06.628Z,8.70
2018-12-27T17:13:11.167Z,12.50
2018-12-27T17:17:15.690Z,8.28
2018-12-27T17:21:20.283Z,8.10
2018-12-27T17:25:24.821Z,8.33
2018-12-27T17:29:32.207Z,8.15
2018-12-27T17:33:36.743Z,8.50
2018-12-27T17:37:41.278Z,14.87
2018-12-27T17:41:45.813Z,8.75
2018-12-27T17:45:50.351Z,8.20
2018-12-27T17:49:54.884Z,8.45
2018-12-27T17:53:59.459Z,9.43
2018-12-27T17:58:04.004Z,9.68
2018-12-27T18:02:08.503Z,8.65
2018-12-27T18:06:13.051Z,12.30
2018-12-27T18:10:17.611Z,12.00
2018-12-27T18:14:22.148Z,8.55
2018-12-27T18:18:26.722Z,8.23
2018-12-27T18:22:31.231Z,9.18
2018-12-27T18:26:35.763Z,8.90
2018-12-27T18:30:40.304Z,10.32
2018-12-27T18:34:44.851Z,9.13
2018-12-27T18:38:50.761Z,7.97
2018-12-27T18:42:55.400Z,10.25
2018-12-27T18:46:59.932Z,8.33
2018-12-27T18:51:04.471Z,8.08
2018-12-27T18:55:08.997Z,9.03
2018-12-27T18:59:13.523Z,7.80
2018-12-27T19:03:18.032Z,8.18
2018-12-27T19:07:22.592Z,8.33
2018-12-27T19:12:03.159Z,8.95
2018-12-27T19:16:07.698Z,10.28
2018-12-27T19:20:12.398Z,8.73
2018-12-27T19:24:16.929Z,8.95
2018-12-27T19:28:21.446Z,8.50
2018-12-27T19:32:25.974Z,8.97
2018-12-27T19:36:30.540Z,8.43
2018-12-27T19:40:35.106Z,8.98
2018-12-27T19:44:39.610Z,8.30
2018-12-27T19:48:44.140Z,9.30
2018-12-27T19:52:48.663Z,8.77
2018-12-27T19:56:53.235Z,8.88
2018-12-27T20:00:57.726Z,8.50
2018-12-27T20:05:02.282Z,9.30
2018-12-27T20:09:07.895Z,9.45
2018-12-27T20:13:12.431Z,10.00
2018-12-27T20:17:17.004Z,9.10
2018-12-27T20:21:21.543Z,9.40
2018-12-27T20:25:26.073Z,8.78
2018-12-27T20:29:30.606Z,9.20
2018-12-27T20:33:35.147Z,9.10
2018-12-27T20:37:39.662Z,9.45
2018-12-27T20:41:44.195Z,9.23
2018-12-27T20:45:48.735Z,9.45
2018-12-27T20:49:53.295Z,9.25
2018-12-27T20:53:57.787Z,9.30
2018-12-27T20:58:02.356Z,9.60
2018-12-27T21:02:06.895Z,9.83
2018-12-27T21:06:11.435Z,26.52
2018-12-27T21:10:15.948Z,10.13
2018-12-27T21:14:20.487Z,11.17
2018-12-27T21:18:25.091Z,9.65
2018-12-27T21:22:29.632Z,9.43
2018-12-27T21:26:34.171Z,10.27
2018-12-27T21:30:38.716Z,9.60
2018-12-27T21:34:43.303Z,10.45
2018-12-27T21:38:48.052Z,9.98
2018-12-27T21:42:52.615Z,12.03
2018-12-27T21:46:57.146Z,12.10
2018-12-27T21:51:01.655Z,12.03
2018-12-27T21:55:06.202Z,11.25
2018-12-27T21:59:10.727Z,12.85
2018-12-27T22:03:15.365Z,10.85
2018-12-27T22:07:19.911Z,11.00
2018-12-27T22:11:24.428Z,11.10
2018-12-27T22:15:28.959Z,12.03
2018-12-27T22:19:33.518Z,10.20
2018-12-27T22:23:38.064Z,11.35
2018-12-27T22:27:42.603Z,11.17
2018-12-27T22:31:47.126Z,10.28
2018-12-27T22:35:51.663Z,10.32
2018-12-27T22:39:56.195Z,20.23
2018-12-27T22:44:00.744Z,12.13
2018-12-27T22:48:05.271Z,11.27
2018-12-27T22:52:09.802Z,10.40
2018-12-27T22:56:14.315Z,10.68
2018-12-27T23:00:34.694Z,10.80
2018-12-27T23:04:39.227Z,10.30
2018-12-27T23:08:43.753Z,10.15
2018-12-27T23:12:48.266Z,10.45
2018-12-27T23:16:52.800Z,10.70
2018-12-27T23:20:57.396Z,10.23
2018-12-27T23:25:01.927Z,10.23
2018-12-27T23:29:06.452Z,10.60
2018-12-27T23:33:10.949Z,10.15
2018-12-27T23:37:15.478Z,9.37
2018-12-27T23:41:20.016Z,14.07
2018-12-27T23:45:24.546Z,12.23
2018-12-27T23:49:29.086Z,11.97
2018-12-27T23:53:33.579Z,13.93
2018-12-27T23:57:38.099Z,12.60
